createdAt,value
2017-09-11T00:00:41.604Z,0
2017-09-11T00:02:04.098Z,0
2017-09-11T00:03:25.576Z,0
2017-09-11T00:04:47.771Z,0
2017-09-11T00:06:09.924Z,0
2017-09-11T00:07:32.040Z,0
2017-09-11T00:08:54.493Z,0
2017-09-11T00:10:16.320Z,0
2017-09-11T00:11:38.463Z,0
2017-09-11T00:13:00.613Z,0
2017-09-11T00:14:22.753Z,0
2017-09-11T00:15:44.574Z,0
2017-09-11T00:17:06.389Z,0
2017-09-11T00:18:28.215Z,0
2017-09-11T00:19:50.034Z,0
2017-09-11T00:21:12.487Z,0
2017-09-11T00:22:34.615Z,0
2017-09-11T00:23:56.571Z,0
2017-09-11T00:25:18.058Z,0
2017-09-11T00:26:40.226Z,0
2017-09-11T00:28:02.364Z,0
2017-09-11T00:29:24.734Z,0
2017-09-11T00:30:46.998Z,0
2017-09-11T00:32:09.234Z,0
2017-09-11T00:33:31.355Z,0
2017-09-11T00:34:53.415Z,0
2017-09-11T00:36:15.241Z,0
2017-09-11T00:37:37.366Z,0
2017-09-11T00:38:59.183Z,0
2017-09-11T00:40:21.386Z,0
2017-09-11T00:41:43.609Z,0
2017-09-11T00:43:06.107Z,0
2017-09-11T00:44:27.929Z,0
2017-09-11T00:45:50.774Z,0
2017-09-11T00:47:13.238Z,0
2017-09-11T00:48:34.732Z,0
2017-09-11T00:49:56.543Z,0
2017-09-11T00:51:18.379Z,0
2017-09-11T00:52:40.834Z,0
2017-09-11T00:54:02.334Z,0
2017-09-11T00:55:24.154Z,0
2017-09-11T00:56:45.903Z,0
2017-09-11T00:58:08.034Z,0
2017-09-11T00:59:30.612Z,0
2017-09-11T01:00:53.056Z,0
2017-09-11T01:02:15.130Z,0
2017-09-11T01:03:37.242Z,0
2017-09-11T01:04:59.062Z,0
2017-09-11T01:06:20.553Z,0
2017-09-11T01:07:42.715Z,0
2017-09-11T01:09:04.837Z,0
2017-09-11T01:10:26.694Z,0
2017-09-11T01:11:48.171Z,0
2017-09-11T01:13:10.664Z,0
2017-09-11T01:14:32.472Z,0
2017-09-11T01:15:54.261Z,0
2017-09-11T01:17:16.048Z,0
2017-09-11T01:18:38.163Z,0
2017-09-11T01:20:00.743Z,0
2017-09-11T01:21:22.693Z,0
2017-09-11T01:22:45.144Z,0
2017-09-11T01:24:07.942Z,0
2017-09-11T01:25:30.088Z,0
2017-09-11T01:26:52.234Z,0
2017-09-11T01:28:13.731Z,0
2017-09-11T01:29:35.896Z,0
2017-09-11T01:30:58.193Z,0
2017-09-11T01:32:20.410Z,0
2017-09-11T01:33:41.889Z,0
2017-09-11T01:35:04.040Z,0
2017-09-11T01:36:25.206Z,0
2017-09-11T01:37:46.410Z,0
2017-09-11T01:39:08.624Z,0
2017-09-11T01:40:31.105Z,0
2017-09-11T01:41:53.244Z,0
2017-09-11T01:43:15.760Z,0
2017-09-11T01:44:37.581Z,0
2017-09-11T01:45:59.483Z,0
2017-09-11T01:47:20.986Z,0
2017-09-11T01:48:43.153Z,0
2017-09-11T01:50:05.314Z,0
2017-09-11T01:51:27.482Z,0
2017-09-11T01:52:49.083Z,0
2017-09-11T01:54:11.214Z,0
2017-09-11T01:55:33.802Z,0
2017-09-11T01:56:56.193Z,0
2017-09-11T01:58:18.023Z,0
2017-09-11T01:59:40.168Z,0
2017-09-11T02:01:02.005Z,0
2017-09-11T02:02:23.428Z,0
2017-09-11T02:03:44.916Z,0
2017-09-11T02:05:07.044Z,0
2017-09-11T02:06:28.852Z,0
2017-09-11T02:07:51.045Z,0
2017-09-11T02:09:13.544Z,0
2017-09-11T02:10:35.685Z,0
2017-09-11T02:11:57.843Z,0
2017-09-11T02:13:19.692Z,0
2017-09-11T02:14:41.198Z,0
2017-09-11T02:16:03.634Z,0
2017-09-11T02:17:26.125Z,0
2017-09-11T02:18:48.955Z,0
2017-09-11T02:20:10.450Z,0
2017-09-11T02:21:32.283Z,0
2017-09-11T02:22:54.412Z,0
2017-09-11T02:24:15.834Z,0
2017-09-11T02:25:37.634Z,0
2017-09-11T02:26:58.812Z,0
2017-09-11T02:28:21.404Z,0
2017-09-11T02:29:43.895Z,0
2017-09-11T02:31:06.162Z,0
2017-09-11T02:32:28.305Z,0
2017-09-11T02:33:50.132Z,0
2017-09-11T02:35:11.875Z,0
2017-09-11T02:36:33.495Z,0
2017-09-11T02:37:55.955Z,0
2017-09-11T02:39:17.801Z,0
2017-09-11T02:40:40.278Z,0
2017-09-11T02:42:02.094Z,0
2017-09-11T02:43:23.582Z,0
2017-09-11T02:44:45.379Z,0
2017-09-11T02:46:07.481Z,0
2017-09-11T02:47:29.945Z,0
2017-09-11T02:48:52.095Z,0
2017-09-11T02:50:14.284Z,0
2017-09-11T02:51:36.135Z,0
2017-09-11T02:52:57.953Z,0
2017-09-11T02:54:19.567Z,0
2017-09-11T02:55:41.716Z,0
2017-09-11T02:57:03.825Z,0
2017-09-11T02:58:25.933Z,0
2017-09-11T02:59:48.069Z,0
2017-09-11T03:01:09.580Z,0
2017-09-11T03:02:30.778Z,0
2017-09-11T03:03:52.906Z,0
2017-09-11T03:05:14.737Z,0
2017-09-11T03:06:36.884Z,0
2017-09-11T03:07:59.453Z,0
2017-09-11T03:09:21.277Z,0
2017-09-11T03:10:42.814Z,0
2017-09-11T03:12:04.645Z,0
2017-09-11T03:13:27.487Z,0
2017-09-11T03:14:49.654Z,0
2017-09-11T03:16:11.803Z,0
2017-09-11T03:17:33.606Z,0
2017-09-11T03:18:56.098Z,0
2017-09-11T03:20:17.913Z,0
2017-09-11T03:21:40.354Z,0
2017-09-11T03:23:02.168Z,0
2017-09-11T03:24:24.614Z,0
2017-09-11T03:25:46.137Z,0
2017-09-11T03:27:08.274Z,0
2017-09-11T03:28:30.085Z,0
2017-09-11T03:29:52.567Z,0
2017-09-11T03:31:14.063Z,0
2017-09-11T03:32:35.885Z,0
2017-09-11T03:33:58.030Z,0
2017-09-11T03:35:20.410Z,0
2017-09-11T03:36:42.232Z,0
2017-09-11T03:38:04.384Z,0
2017-09-11T03:39:26.214Z,0
2017-09-11T03:40:48.999Z,0
2017-09-11T03:42:10.807Z,0
2017-09-11T03:43:33.032Z,0
2017-09-11T03:44:54.943Z,0
2017-09-11T03:46:17.166Z,0
2017-09-11T03:47:39.668Z,0
2017-09-11T03:49:01.832Z,0
2017-09-11T03:50:22.992Z,0
2017-09-11T03:51:44.476Z,0
2017-09-11T03:53:05.641Z,0
2017-09-11T03:54:27.762Z,0
2017-09-11T03:55:50.214Z,0
2017-09-11T03:57:12.788Z,0
2017-09-11T03:58:33.948Z,0
2017-09-11T03:59:56.052Z,0
2017-09-11T04:01:17.869Z,0
2017-09-11T04:02:40.582Z,0
2017-09-11T04:04:02.812Z,0
2017-09-11T04:05:25.269Z,0
2017-09-11T04:06:47.413Z,0
2017-09-11T04:08:09.912Z,0
2017-09-11T04:09:31.505Z,0
2017-09-11T04:10:53.642Z,0
2017-09-11T04:12:15.503Z,0
2017-09-11T04:13:38.015Z,0
2017-09-11T04:15:00.482Z,0
2017-09-11T04:16:22.945Z,0
2017-09-11T04:17:44.140Z,0
2017-09-11T04:19:05.971Z,0
2017-09-11T04:20:28.124Z,0
2017-09-11T04:21:50.729Z,0
2017-09-11T04:23:12.213Z,0
2017-09-11T04:24:34.392Z,0
2017-09-11T04:25:56.540Z,0
2017-09-11T04:27:18.703Z,0
2017-09-11T04:28:40.512Z,0
2017-09-11T04:30:02.617Z,0
2017-09-11T04:31:24.782Z,0
2017-09-11T04:32:46.918Z,0
2017-09-11T04:34:09.063Z,0
2017-09-11T04:35:31.223Z,0
2017-09-11T04:36:53.361Z,0
2017-09-11T04:38:15.523Z,0
2017-09-11T04:39:37.697Z,0
2017-09-11T04:40:59.961Z,0
2017-09-11T04:42:22.107Z,0
2017-09-11T04:43:43.966Z,0
2017-09-11T04:45:06.522Z,0
2017-09-11T04:46:29.013Z,0
2017-09-11T04:47:51.612Z,0
2017-09-11T04:49:13.422Z,0
2017-09-11T04:50:34.601Z,0
2017-09-11T04:51:56.441Z,0
2017-09-11T04:53:18.267Z,0
2017-09-11T04:54:41.042Z,5
2017-09-11T04:56:03.632Z,5
2017-09-11T04:57:25.462Z,5
2017-09-11T04:58:47.020Z,5
2017-09-11T05:00:09.271Z,5
2017-09-11T05:01:31.583Z,5
2017-09-11T05:02:53.965Z,10
2017-09-11T05:04:16.112Z,10
2017-09-11T05:05:37.930Z,10
2017-09-11T05:07:00.083Z,10
2017-09-11T05:08:22.249Z,10
2017-09-11T05:09:44.732Z,15
2017-09-11T05:11:06.943Z,10
2017-09-11T05:12:29.122Z,15
2017-09-11T05:13:51.403Z,15
2017-09-11T05:15:13.551Z,10
2017-09-11T05:16:35.361Z,15
2017-09-11T05:17:57.238Z,15
2017-09-11T05:19:19.061Z,15
2017-09-11T05:20:41.202Z,15
2017-09-11T05:22:03.660Z,10
2017-09-11T05:23:25.798Z,10
2017-09-11T05:24:48.601Z,10
2017-09-11T05:26:10.528Z,10
2017-09-11T05:27:32.335Z,15
2017-09-11T05:28:54.483Z,25
2017-09-11T05:30:16.660Z,35
2017-09-11T05:31:39.135Z,35
2017-09-11T05:33:01.356Z,40
2017-09-11T05:34:23.171Z,35
2017-09-11T05:35:45.662Z,25
2017-09-11T05:37:07.811Z,25
2017-09-11T05:38:30.281Z,25
2017-09-11T05:39:52.103Z,30
2017-09-11T05:41:14.597Z,30
2017-09-11T05:42:35.832Z,35
2017-09-11T05:43:57.971Z,45
2017-09-11T05:45:19.801Z,45
2017-09-11T05:46:42.613Z,50
2017-09-11T05:48:05.095Z,55
2017-09-11T05:49:26.972Z,60
2017-09-11T05:50:49.431Z,65
2017-09-11T05:52:11.902Z,70
2017-09-11T05:53:34.517Z,75
2017-09-11T05:54:56.331Z,80
2017-09-11T05:56:18.159Z,85
2017-09-11T05:57:41.064Z,85
2017-09-11T05:59:02.572Z,90
2017-09-11T06:00:24.722Z,90
2017-09-11T06:01:47.288Z,90
2017-09-11T06:03:08.800Z,90
2017-09-11T06:04:30.029Z,90
2017-09-11T06:05:51.842Z,95
2017-09-11T06:07:14.032Z,95
2017-09-11T06:08:36.747Z,85
2017-09-11T06:09:58.926Z,70
2017-09-11T06:11:21.192Z,60
2017-09-11T06:12:43.149Z,60
2017-09-11T06:14:05.560Z,65
2017-09-11T06:15:27.498Z,70
2017-09-11T06:16:49.971Z,75
2017-09-11T06:18:12.108Z,80
2017-09-11T06:19:33.967Z,80
2017-09-11T06:20:55.772Z,80
2017-09-11T06:22:18.075Z,90
2017-09-11T06:23:40.204Z,95
2017-09-11T06:25:02.386Z,110
2017-09-11T06:26:23.882Z,120
2017-09-11T06:27:46.332Z,110
2017-09-11T06:29:08.469Z,115
2017-09-11T06:30:31.133Z,115
2017-09-11T06:31:52.625Z,195
2017-09-11T06:33:14.752Z,220
2017-09-11T06:34:36.929Z,145
2017-09-11T06:35:58.791Z,125
2017-09-11T06:37:20.362Z,125
2017-09-11T06:38:42.203Z,135
2017-09-11T06:40:04.022Z,135
2017-09-11T06:41:26.574Z,160
2017-09-11T06:42:48.971Z,150
2017-09-11T06:44:11.107Z,175
2017-09-11T06:45:33.562Z,210
2017-09-11T06:46:56.064Z,210
2017-09-11T06:48:18.220Z,240
2017-09-11T06:49:40.511Z,205
2017-09-11T06:51:02.319Z,245
2017-09-11T06:52:24.839Z,195
2017-09-11T06:53:46.432Z,215
2017-09-11T06:55:07.922Z,185
2017-09-11T06:56:29.442Z,145
2017-09-11T06:57:51.952Z,135
2017-09-11T06:59:14.432Z,125
2017-09-11T07:00:35.942Z,295
2017-09-11T07:01:57.530Z,245
2017-09-11T07:03:20.022Z,295
2017-09-11T07:04:41.841Z,325
2017-09-11T07:06:03.662Z,345
2017-09-11T07:07:25.485Z,375
2017-09-11T07:08:47.922Z,255
2017-09-11T07:10:09.435Z,255
2017-09-11T07:11:31.331Z,325
2017-09-11T07:12:53.468Z,205
2017-09-11T07:14:15.922Z,315
2017-09-11T07:15:37.412Z,290
2017-09-11T07:16:59.541Z,205
2017-09-11T07:18:22.014Z,190
2017-09-11T07:19:44.512Z,185
2017-09-11T07:21:06.983Z,295
2017-09-11T07:22:29.495Z,235
2017-09-11T07:23:51.653Z,345
2017-09-11T07:25:13.611Z,310
2017-09-11T07:26:35.822Z,335
2017-09-11T07:27:58.293Z,380
2017-09-11T07:29:20.453Z,350
2017-09-11T07:30:42.980Z,300
2017-09-11T07:32:04.522Z,275
2017-09-11T07:33:26.355Z,235
2017-09-11T07:34:47.545Z,230
2017-09-11T07:36:09.684Z,235
2017-09-11T07:37:31.814Z,220
2017-09-11T07:38:53.769Z,215
2017-09-11T07:40:16.229Z,180
2017-09-11T07:41:38.030Z,140
2017-09-11T07:42:59.623Z,200
2017-09-11T07:44:21.513Z,175
2017-09-11T07:45:43.335Z,200
2017-09-11T07:47:05.944Z,170
2017-09-11T07:48:27.446Z,140
2017-09-11T07:49:49.280Z,255
2017-09-11T07:51:11.458Z,225
2017-09-11T07:52:34.014Z,290
2017-09-11T07:53:55.854Z,255
2017-09-11T07:55:18.380Z,245
2017-09-11T07:56:39.881Z,255
2017-09-11T07:58:02.066Z,225
2017-09-11T07:59:24.263Z,185
2017-09-11T08:00:46.726Z,165
2017-09-11T08:02:09.199Z,200
2017-09-11T08:03:30.736Z,200
2017-09-11T08:04:52.905Z,215
2017-09-11T08:06:14.737Z,260
2017-09-11T08:07:36.883Z,250
2017-09-11T08:08:59.653Z,230
2017-09-11T08:10:21.173Z,245
2017-09-11T08:11:43.329Z,250
2017-09-11T08:13:05.177Z,230
2017-09-11T08:14:27.253Z,200
2017-09-11T08:15:49.404Z,195
2017-09-11T08:17:10.890Z,200
2017-09-11T08:18:33.034Z,175
2017-09-11T08:19:55.525Z,195
2017-09-11T08:21:17.649Z,250
2017-09-11T08:22:39.863Z,280
2017-09-11T08:24:01.693Z,275
2017-09-11T08:25:23.865Z,300
2017-09-11T08:26:46.339Z,260
2017-09-11T08:28:08.461Z,300
2017-09-11T08:29:30.652Z,350
2017-09-11T08:30:53.646Z,360
2017-09-11T08:32:16.140Z,340
2017-09-11T08:33:37.969Z,295
2017-09-11T08:34:59.777Z,245
2017-09-11T08:36:21.588Z,245
2017-09-11T08:37:43.086Z,215
2017-09-11T08:39:05.343Z,210
2017-09-11T08:40:27.483Z,205
2017-09-11T08:41:49.610Z,240
2017-09-11T08:43:11.443Z,230
2017-09-11T08:44:33.585Z,270
2017-09-11T08:45:55.743Z,290
2017-09-11T08:47:18.492Z,295
2017-09-11T08:48:40.340Z,295
2017-09-11T08:50:02.790Z,285
2017-09-11T08:51:25.023Z,255
2017-09-11T08:52:47.516Z,245
2017-09-11T08:54:09.670Z,280
2017-09-11T08:55:32.165Z,335
2017-09-11T08:56:54.633Z,320
2017-09-11T08:58:17.086Z,310
2017-09-11T08:59:38.981Z,310
2017-09-11T09:01:00.844Z,310
2017-09-11T09:02:23.322Z,315
2017-09-11T09:03:45.783Z,295
2017-09-11T09:05:07.928Z,290
2017-09-11T09:06:30.092Z,290
2017-09-11T09:07:51.622Z,275
2017-09-11T09:09:14.044Z,245
2017-09-11T09:10:36.221Z,245
2017-09-11T09:11:58.362Z,265
2017-09-11T09:13:19.874Z,280
2017-09-11T09:14:42.060Z,280
2017-09-11T09:16:04.542Z,255
2017-09-11T09:17:26.415Z,250
2017-09-11T09:18:48.111Z,265
2017-09-11T09:20:10.601Z,275
2017-09-11T09:21:32.441Z,285
2017-09-11T09:22:54.661Z,285
2017-09-11T09:24:17.232Z,320
2017-09-11T09:25:39.688Z,340
2017-09-11T09:27:01.901Z,320
2017-09-11T09:28:24.041Z,280
2017-09-11T09:29:45.870Z,260
2017-09-11T09:31:07.765Z,280
2017-09-11T09:32:29.911Z,305
2017-09-11T09:33:52.060Z,365
2017-09-11T09:35:13.996Z,330
2017-09-11T09:36:36.119Z,330
2017-09-11T09:37:57.964Z,345
2017-09-11T09:39:20.213Z,325
2017-09-11T09:40:42.697Z,325
2017-09-11T09:42:05.103Z,325
2017-09-11T09:43:27.572Z,290
2017-09-11T09:44:49.738Z,285
2017-09-11T09:46:12.213Z,325
2017-09-11T09:47:34.014Z,350
2017-09-11T09:48:56.471Z,360
2017-09-11T09:50:17.995Z,275
2017-09-11T09:51:39.884Z,265
2017-09-11T09:53:02.610Z,225
2017-09-11T09:54:24.422Z,255
2017-09-11T09:55:46.582Z,250
2017-09-11T09:57:08.734Z,260
2017-09-11T09:58:31.133Z,260
2017-09-11T09:59:53.008Z,295
2017-09-11T10:01:14.816Z,350
2017-09-11T10:02:36.997Z,340
2017-09-11T10:03:59.242Z,340
2017-09-11T10:05:21.733Z,330
2017-09-11T10:06:42.962Z,305
2017-09-11T10:08:05.112Z,355
2017-09-11T10:09:27.532Z,330
2017-09-11T10:10:50.023Z,350
2017-09-11T10:12:11.533Z,360
2017-09-11T10:13:33.696Z,340
2017-09-11T10:14:56.139Z,365
2017-09-11T10:16:18.293Z,340
2017-09-11T10:17:40.435Z,315
2017-09-11T10:19:02.991Z,280
2017-09-11T10:20:25.375Z,275
2017-09-11T10:21:47.639Z,300
2017-09-11T10:23:09.474Z,325
2017-09-11T10:24:31.352Z,345
2017-09-11T10:25:53.545Z,330
2017-09-11T10:27:16.013Z,345
2017-09-11T10:28:38.585Z,380
2017-09-11T10:30:01.057Z,365
2017-09-11T10:31:23.279Z,355
2017-09-11T10:32:45.413Z,310
2017-09-11T10:34:06.933Z,310
2017-09-11T10:35:28.467Z,350
2017-09-11T10:36:51.352Z,305
2017-09-11T10:38:13.314Z,305
2017-09-11T10:39:35.793Z,280
2017-09-11T10:40:57.931Z,295
2017-09-11T10:42:20.804Z,310
2017-09-11T10:43:42.774Z,360
2017-09-11T10:45:05.313Z,355
2017-09-11T10:46:27.464Z,360
2017-09-11T10:47:49.964Z,325
2017-09-11T10:49:12.480Z,295
2017-09-11T10:50:34.726Z,355
2017-09-11T10:51:56.915Z,340
2017-09-11T10:53:19.316Z,325
2017-09-11T10:54:41.155Z,285
2017-09-11T10:56:03.294Z,280
2017-09-11T10:57:25.784Z,310
2017-09-11T10:58:47.891Z,305
2017-09-11T11:00:10.094Z,325
2017-09-11T11:01:31.944Z,295
2017-09-11T11:02:54.402Z,310
2017-09-11T11:04:16.838Z,315
2017-09-11T11:05:38.669Z,325
2017-09-11T11:07:01.465Z,260
2017-09-11T11:08:23.285Z,175
2017-09-11T11:09:46.093Z,150
2017-09-11T11:11:07.601Z,130
2017-09-11T11:12:30.064Z,175
2017-09-11T11:13:52.233Z,280
2017-09-11T11:15:14.371Z,325
2017-09-11T11:16:35.557Z,385
2017-09-11T11:17:57.419Z,365
2017-09-11T11:19:18.973Z,375
2017-09-11T11:20:40.732Z,385
2017-09-11T11:22:02.900Z,360
2017-09-11T11:23:25.054Z,345
2017-09-11T11:24:46.884Z,370
2017-09-11T11:26:09.444Z,370
2017-09-11T11:27:31.302Z,325
2017-09-11T11:28:53.451Z,300
2017-09-11T11:30:15.654Z,295
2017-09-11T11:31:38.053Z,295
2017-09-11T11:33:00.783Z,325
2017-09-11T11:34:22.622Z,330
2017-09-11T11:35:44.446Z,250
2017-09-11T11:37:07.367Z,230
2017-09-11T11:38:29.194Z,210
2017-09-11T11:39:51.353Z,220
2017-09-11T11:41:13.823Z,225
2017-09-11T11:42:36.325Z,205
2017-09-11T11:43:58.869Z,205
2017-09-11T11:45:21.034Z,220
2017-09-11T11:46:43.184Z,245
2017-09-11T11:48:05.583Z,335
2017-09-11T11:49:28.076Z,380
2017-09-11T11:50:49.912Z,340
2017-09-11T11:52:12.183Z,290
2017-09-11T11:53:34.603Z,265
2017-09-11T11:54:56.819Z,270
2017-09-11T11:56:17.999Z,285
2017-09-11T11:57:39.853Z,305
2017-09-11T11:59:02.033Z,335
2017-09-11T12:00:23.539Z,350
2017-09-11T12:01:46.014Z,345
2017-09-11T12:03:08.293Z,295
2017-09-11T12:04:30.713Z,290
2017-09-11T12:05:53.264Z,270
2017-09-11T12:07:15.403Z,255
2017-09-11T12:08:36.622Z,280
2017-09-11T12:09:58.706Z,290
2017-09-11T12:11:20.533Z,330
2017-09-11T12:12:42.681Z,325
2017-09-11T12:14:04.501Z,325
2017-09-11T12:15:27.344Z,315
2017-09-11T12:16:49.502Z,290
2017-09-11T12:18:11.657Z,295
2017-09-11T12:19:33.823Z,275
2017-09-11T12:20:56.336Z,280
2017-09-11T12:22:18.180Z,255
2017-09-11T12:23:39.804Z,215
2017-09-11T12:25:01.954Z,195
2017-09-11T12:26:24.663Z,180
2017-09-11T12:27:46.910Z,170
2017-09-11T12:29:09.423Z,165
2017-09-11T12:30:31.607Z,160
2017-09-11T12:31:54.364Z,160
2017-09-11T12:33:16.576Z,160
2017-09-11T12:34:38.495Z,160
2017-09-11T12:36:00.973Z,160
2017-09-11T12:37:23.696Z,160
2017-09-11T12:38:45.875Z,160
2017-09-11T12:40:08.023Z,145
2017-09-11T12:41:30.174Z,140
2017-09-11T12:42:52.633Z,155
2017-09-11T12:44:14.454Z,195
2017-09-11T12:45:36.605Z,215
2017-09-11T12:46:58.463Z,235
2017-09-11T12:48:21.205Z,260
2017-09-11T12:49:43.345Z,250
2017-09-11T12:51:05.526Z,220
2017-09-11T12:52:27.383Z,200
2017-09-11T12:53:50.253Z,180
2017-09-11T12:55:12.085Z,165
2017-09-11T12:56:34.241Z,165
2017-09-11T12:57:56.394Z,205
2017-09-11T12:59:18.802Z,255
2017-09-11T13:00:40.977Z,265
2017-09-11T13:02:03.130Z,260
2017-09-11T13:03:24.973Z,235
2017-09-11T13:04:47.183Z,220
2017-09-11T13:06:08.732Z,220
2017-09-11T13:07:30.906Z,230
2017-09-11T13:08:53.070Z,235
2017-09-11T13:10:15.234Z,220
2017-09-11T13:11:37.424Z,210
2017-09-11T13:12:59.933Z,245
2017-09-11T13:14:22.403Z,285
2017-09-11T13:15:44.804Z,325
2017-09-11T13:17:07.028Z,310
2017-09-11T13:18:29.186Z,265
2017-09-11T13:19:50.716Z,270
2017-09-11T13:21:12.847Z,280
2017-09-11T13:22:35.435Z,260
2017-09-11T13:23:57.915Z,250
2017-09-11T13:25:19.858Z,245
2017-09-11T13:26:41.934Z,245
2017-09-11T13:28:04.417Z,255
2017-09-11T13:29:26.565Z,280
2017-09-11T13:30:48.704Z,270
2017-09-11T13:32:11.104Z,275
2017-09-11T13:33:33.602Z,280
2017-09-11T13:34:55.842Z,245
2017-09-11T13:36:18.022Z,220
2017-09-11T13:37:40.752Z,225
2017-09-11T13:39:02.996Z,230
2017-09-11T13:40:25.256Z,240
2017-09-11T13:41:47.403Z,225
2017-09-11T13:43:09.984Z,195
2017-09-11T13:44:32.133Z,185
2017-09-11T13:45:53.965Z,180
2017-09-11T13:47:16.435Z,195
2017-09-11T13:48:38.311Z,220
2017-09-11T13:50:00.939Z,260
2017-09-11T13:51:22.771Z,300
2017-09-11T13:52:45.353Z,325
2017-09-11T13:54:07.844Z,340
2017-09-11T13:55:30.363Z,315
2017-09-11T13:56:52.529Z,275
2017-09-11T13:58:14.413Z,245
2017-09-11T13:59:36.483Z,230
2017-09-11T14:00:58.649Z,220
2017-09-11T14:02:21.163Z,200
2017-09-11T14:03:43.648Z,190
2017-09-11T14:05:06.418Z,185
2017-09-11T14:06:28.572Z,165
2017-09-11T14:07:50.746Z,155
2017-09-11T14:09:13.224Z,150
2017-09-11T14:10:35.706Z,150
2017-09-11T14:11:57.532Z,145
2017-09-11T14:13:19.093Z,145
2017-09-11T14:14:40.666Z,145
2017-09-11T14:16:03.408Z,145
2017-09-11T14:17:25.881Z,145
2017-09-11T14:18:48.371Z,135
2017-09-11T14:20:10.504Z,135
2017-09-11T14:21:32.975Z,130
2017-09-11T14:22:54.819Z,125
2017-09-11T14:24:17.314Z,150
2017-09-11T14:25:39.844Z,180
2017-09-11T14:27:02.357Z,225
2017-09-11T14:28:24.924Z,250
2017-09-11T14:29:47.070Z,265
2017-09-11T14:31:08.925Z,275
2017-09-11T14:32:31.376Z,245
2017-09-11T14:33:53.624Z,195
2017-09-11T14:35:16.103Z,165
2017-09-11T14:36:38.585Z,150
2017-09-11T14:38:01.993Z,145
2017-09-11T14:39:23.927Z,150
2017-09-11T14:40:46.086Z,150
2017-09-11T14:42:08.217Z,145
2017-09-11T14:43:30.756Z,140
2017-09-11T14:44:53.274Z,140
2017-09-11T14:46:15.744Z,145
2017-09-11T14:47:37.610Z,150
2017-09-11T14:48:59.672Z,155
2017-09-11T14:50:21.936Z,135
2017-09-11T14:51:44.282Z,130
2017-09-11T14:53:06.750Z,175
2017-09-11T14:54:29.610Z,195
2017-09-11T14:55:51.771Z,170
2017-09-11T14:57:14.234Z,135
2017-09-11T14:58:36.723Z,130
2017-09-11T14:59:59.540Z,140
2017-09-11T15:01:21.705Z,145
2017-09-11T15:02:43.523Z,145
2017-09-11T15:04:05.669Z,150
2017-09-11T15:05:28.252Z,140
2017-09-11T15:06:50.086Z,145
2017-09-11T15:08:12.242Z,140
2017-09-11T15:09:34.129Z,140
2017-09-11T15:10:56.505Z,140
2017-09-11T15:12:18.753Z,140
2017-09-11T15:13:41.244Z,135
2017-09-11T15:15:03.394Z,130
2017-09-11T15:16:25.814Z,120
2017-09-11T15:17:48.196Z,120
2017-09-11T15:19:10.693Z,115
2017-09-11T15:20:32.844Z,120
2017-09-11T15:21:55.763Z,120
2017-09-11T15:23:17.603Z,130
2017-09-11T15:24:39.160Z,130
2017-09-11T15:26:01.313Z,120
2017-09-11T15:27:23.805Z,110
2017-09-11T15:28:45.671Z,110
2017-09-11T15:30:08.163Z,125
2017-09-11T15:31:30.323Z,120
2017-09-11T15:32:52.490Z,120
2017-09-11T15:34:14.673Z,140
2017-09-11T15:35:36.901Z,150
2017-09-11T15:36:59.123Z,130
2017-09-11T15:38:20.904Z,120
2017-09-11T15:39:43.062Z,115
2017-09-11T15:41:05.217Z,120
2017-09-11T15:42:27.714Z,115
2017-09-11T15:43:50.453Z,120
2017-09-11T15:45:12.917Z,130
2017-09-11T15:46:35.094Z,130
2017-09-11T15:47:57.323Z,115
2017-09-11T15:49:19.728Z,115
2017-09-11T15:50:41.893Z,120
2017-09-11T15:52:03.398Z,110
2017-09-11T15:53:25.229Z,100
2017-09-11T15:54:47.093Z,100
2017-09-11T15:56:09.663Z,95
2017-09-11T15:57:31.515Z,105
2017-09-11T15:58:53.984Z,120
2017-09-11T16:00:16.532Z,130
2017-09-11T16:01:38.681Z,135
2017-09-11T16:03:00.822Z,145
2017-09-11T16:04:22.988Z,150
2017-09-11T16:05:45.825Z,145
2017-09-11T16:07:08.324Z,150
2017-09-11T16:08:30.873Z,150
2017-09-11T16:09:53.092Z,160
2017-09-11T16:11:15.923Z,160
2017-09-11T16:12:37.782Z,145
2017-09-11T16:13:59.949Z,140
2017-09-11T16:15:22.092Z,140
2017-09-11T16:16:43.988Z,135
2017-09-11T16:18:05.744Z,135
2017-09-11T16:19:28.240Z,120
2017-09-11T16:20:50.726Z,105
2017-09-11T16:22:13.452Z,100
2017-09-11T16:23:35.685Z,100
2017-09-11T16:24:58.414Z,100
2017-09-11T16:26:20.584Z,95
2017-09-11T16:27:43.541Z,95
2017-09-11T16:29:06.014Z,90
2017-09-11T16:30:28.184Z,90
2017-09-11T16:31:50.120Z,85
2017-09-11T16:33:12.605Z,85
2017-09-11T16:34:34.103Z,85
2017-09-11T16:35:55.691Z,75
2017-09-11T16:37:17.866Z,75
2017-09-11T16:38:39.955Z,70
2017-09-11T16:40:02.504Z,70
2017-09-11T16:41:24.344Z,65
2017-09-11T16:42:46.537Z,65
2017-09-11T16:44:08.745Z,60
2017-09-11T16:45:30.588Z,60
2017-09-11T16:46:52.433Z,55
2017-09-11T16:48:14.266Z,55
2017-09-11T16:49:37.063Z,55
2017-09-11T16:50:59.564Z,50
2017-09-11T16:52:22.075Z,50
2017-09-11T16:53:44.320Z,45
2017-09-11T16:55:06.740Z,45
2017-09-11T16:56:29.325Z,50
2017-09-11T16:57:51.511Z,50
2017-09-11T16:59:13.035Z,50
2017-09-11T17:00:35.243Z,50
2017-09-11T17:01:57.397Z,50
2017-09-11T17:03:19.561Z,50
2017-09-11T17:04:41.745Z,45
2017-09-11T17:06:04.543Z,40
2017-09-11T17:07:26.735Z,35
2017-09-11T17:08:49.364Z,35
2017-09-11T17:10:11.890Z,35
2017-09-11T17:11:34.386Z,40
2017-09-11T17:12:56.340Z,35
2017-09-11T17:14:18.465Z,30
2017-09-11T17:15:40.988Z,30
2017-09-11T17:17:03.594Z,30
2017-09-11T17:18:26.082Z,30
2017-09-11T17:19:48.715Z,30
2017-09-11T17:21:10.895Z,25
2017-09-11T17:22:33.306Z,20
2017-09-11T17:23:55.803Z,20
2017-09-11T17:25:17.992Z,20
2017-09-11T17:26:40.192Z,20
2017-09-11T17:28:02.405Z,20
2017-09-11T17:29:24.898Z,20
2017-09-11T17:30:47.421Z,15
2017-09-11T17:32:09.291Z,15
2017-09-11T17:33:31.784Z,15
2017-09-11T17:34:53.715Z,10
2017-09-11T17:36:15.901Z,10
2017-09-11T17:37:37.743Z,10
2017-09-11T17:39:00.197Z,10
2017-09-11T17:40:22.450Z,5
2017-09-11T17:41:44.606Z,5
2017-09-11T17:43:07.115Z,5
2017-09-11T17:44:29.534Z,5
2017-09-11T17:45:51.716Z,5
2017-09-11T17:47:14.212Z,5
2017-09-11T17:48:36.723Z,5
2017-09-11T17:49:59.177Z,0
2017-09-11T17:51:21.406Z,0
2017-09-11T17:52:43.891Z,0
2017-09-11T17:54:06.366Z,0
2017-09-11T17:55:28.821Z,0
2017-09-11T17:56:51.392Z,0
2017-09-11T17:58:13.244Z,0
2017-09-11T17:59:35.533Z,0
2017-09-11T18:00:58.042Z,0
2017-09-11T18:02:20.545Z,0
2017-09-11T18:03:42.824Z,0
2017-09-11T18:05:04.755Z,0
2017-09-11T18:06:27.240Z,0
2017-09-11T18:07:49.493Z,0
2017-09-11T18:09:12.084Z,0
2017-09-11T18:10:34.632Z,0
2017-09-11T18:11:57.385Z,0
2017-09-11T18:13:19.567Z,0
2017-09-11T18:14:41.723Z,0
2017-09-11T18:16:03.645Z,0
2017-09-11T18:17:26.155Z,0
2017-09-11T18:18:47.993Z,0
2017-09-11T18:20:10.513Z,0
2017-09-11T18:21:33.022Z,0
2017-09-11T18:22:55.973Z,0
2017-09-11T18:24:18.555Z,0
2017-09-11T18:25:41.063Z,0
2017-09-11T18:27:02.905Z,0
2017-09-11T18:28:25.683Z,0
2017-09-11T18:29:47.888Z,0
2017-09-11T18:31:10.087Z,0
2017-09-11T18:32:32.593Z,0
2017-09-11T18:33:55.435Z,0
2017-09-11T18:35:17.929Z,0
2017-09-11T18:36:40.434Z,0
2017-09-11T18:38:02.314Z,0
2017-09-11T18:39:25.090Z,0
2017-09-11T18:40:47.602Z,0
2017-09-11T18:42:10.076Z,0
2017-09-11T18:43:32.676Z,0
2017-09-11T18:44:55.454Z,0
2017-09-11T18:46:17.622Z,0
2017-09-11T18:47:39.474Z,0
2017-09-11T18:49:01.976Z,0
2017-09-11T18:50:24.521Z,0
2017-09-11T18:51:46.696Z,0
2017-09-11T18:53:08.863Z,0
2017-09-11T18:54:31.456Z,0
2017-09-11T18:55:53.950Z,0
2017-09-11T18:57:15.824Z,0
2017-09-11T18:58:38.311Z,0
2017-09-11T19:00:00.523Z,0
2017-09-11T19:01:23.363Z,0
2017-09-11T19:02:45.342Z,0
2017-09-11T19:04:07.232Z,0
2017-09-11T19:05:29.754Z,0
2017-09-11T19:06:52.175Z,0
2017-09-11T19:08:14.713Z,0
2017-09-11T19:09:36.925Z,0
2017-09-11T19:10:59.086Z,0
2017-09-11T19:12:21.850Z,0
2017-09-11T19:13:44.393Z,0
2017-09-11T19:15:06.878Z,0
2017-09-11T19:16:28.726Z,0
2017-09-11T19:17:51.144Z,0
2017-09-11T19:19:13.633Z,0
2017-09-11T19:20:35.817Z,0
2017-09-11T19:21:58.304Z,0
2017-09-11T19:23:21.073Z,0
2017-09-11T19:24:43.578Z,0